createdAt,value
2022-09-11T00:00:05.202Z,945.23
2022-09-11T00:05:02.993Z,945.27
2022-09-11T00:10:04.115Z,945.22
2022-09-11T00:15:02.989Z,945.18
2022-09-11T00:20:04.274Z,945.10
2022-09-11T00:25:03.262Z,945.20
2022-09-11T00:30:05.454Z,945.33
2022-09-11T00:35:03.027Z,945.35
2022-09-11T00:40:04.248Z,945.37
2022-09-11T00:45:03.021Z,945.37
2022-09-11T00:50:04.303Z,945.37
2022-09-11T00:55:03.063Z,945.39
2022-09-11T01:00:06.286Z,945.53
2022-09-11T01:05:03.014Z,945.57
2022-09-11T01:10:04.165Z,945.49
2022-09-11T01:15:03.111Z,945.51
2022-09-11T01:20:09.229Z,945.53
2022-09-11T01:25:02.997Z,945.59
2022-09-11T01:30:06.308Z,945.65
2022-09-11T01:35:03.135Z,945.63
2022-09-11T01:40:04.462Z,945.63
2022-09-11T01:45:03.111Z,945.65
2022-09-11T01:50:04.326Z,945.57
2022-09-11T01:55:03.068Z,945.61
2022-09-11T02:00:06.319Z,945.61
2022-09-11T02:05:03.017Z,945.55
2022-09-11T02:10:04.217Z,945.69
2022-09-11T02:15:03.227Z,945.70
2022-09-11T02:20:07.394Z,945.70
2022-09-11T02:25:02.994Z,945.63
2022-09-11T02:30:04.312Z,945.59
2022-09-11T02:35:02.997Z,945.59
2022-09-11T02:40:04.345Z,945.51
2022-09-11T02:45:03.042Z,945.45
2022-09-11T02:50:04.243Z,945.39
2022-09-11T02:55:03.002Z,945.45
2022-09-11T03:00:04.452Z,945.53
2022-09-11T03:05:03.009Z,945.49
2022-09-11T03:10:04.111Z,945.37
2022-09-11T03:15:03.108Z,945.33
2022-09-11T03:20:04.294Z,945.37
2022-09-11T03:25:03.042Z,945.35
2022-09-11T03:30:06.240Z,945.29
2022-09-11T03:35:03.048Z,945.22
2022-09-11T03:40:04.268Z,945.16
2022-09-11T03:45:03.026Z,945.14
2022-09-11T03:50:04.314Z,945.04
2022-09-11T03:55:03.039Z,944.98
2022-09-11T04:00:04.609Z,944.92
2022-09-11T04:05:02.901Z,944.88
2022-09-11T04:10:04.440Z,944.86
2022-09-11T04:15:03.045Z,944.80
2022-09-11T04:20:04.233Z,944.84
2022-09-11T04:25:02.957Z,944.78
2022-09-11T04:30:04.393Z,944.74
2022-09-11T04:35:03.058Z,944.59
2022-09-11T04:40:04.197Z,944.65
2022-09-11T04:45:02.995Z,944.59
2022-09-11T04:50:04.176Z,944.55
2022-09-11T04:55:03.070Z,944.51
2022-09-11T05:00:04.250Z,944.37
2022-09-11T05:05:02.976Z,944.27
2022-09-11T05:10:04.155Z,944.21
2022-09-11T05:15:02.974Z,944.12
2022-09-11T05:20:05.780Z,944.00
2022-09-11T05:25:03.009Z,943.92
2022-09-11T05:30:04.491Z,943.84
2022-09-11T05:35:02.932Z,943.82
2022-09-11T05:40:04.213Z,943.80
2022-09-11T05:45:02.956Z,943.72
2022-09-11T05:50:04.208Z,943.74
2022-09-11T05:55:02.942Z,943.76
2022-09-11T06:00:05.473Z,943.68
2022-09-11T06:05:02.958Z,943.65
2022-09-11T06:10:04.173Z,943.63
2022-09-11T06:15:02.921Z,943.49
2022-09-11T06:20:04.195Z,943.43
2022-09-11T06:25:03.016Z,943.33
2022-09-11T06:30:05.197Z,943.35
2022-09-11T06:35:02.991Z,943.35
2022-09-11T06:40:04.170Z,943.33
2022-09-11T06:45:02.895Z,943.27
2022-09-11T06:50:04.087Z,943.33
2022-09-11T06:55:03.010Z,943.39
2022-09-11T07:00:04.347Z,943.31
2022-09-11T07:05:02.959Z,943.39
2022-09-11T07:10:04.160Z,943.29
2022-09-11T07:15:03.046Z,943.23
2022-09-11T07:20:04.193Z,943.23
2022-09-11T07:25:07.065Z,943.18
2022-09-11T07:30:04.477Z,943.23
2022-09-11T07:35:03.069Z,943.21
2022-09-11T07:40:04.200Z,943.16
2022-09-11T07:45:02.965Z,943.16
2022-09-11T07:50:04.125Z,943.20
2022-09-11T07:55:02.957Z,943.29
2022-09-11T08:00:05.118Z,943.31
2022-09-11T08:05:03.026Z,943.31
2022-09-11T08:10:25.902Z,943.37
2022-09-11T08:15:02.989Z,943.37
2022-09-11T08:20:04.071Z,943.35
2022-09-11T08:25:02.925Z,943.39
2022-09-11T08:30:05.986Z,943.23
2022-09-11T08:35:02.925Z,943.33
2022-09-11T08:40:04.308Z,943.39
2022-09-11T08:45:02.938Z,943.37
2022-09-11T08:50:04.107Z,943.37
2022-09-11T08:55:02.975Z,943.39
2022-09-11T09:00:04.466Z,943.45
2022-09-11T09:05:02.953Z,943.59
2022-09-11T09:10:04.177Z,943.47
2022-09-11T09:15:02.999Z,943.47
2022-09-11T09:20:04.100Z,943.68
2022-09-11T09:25:03.108Z,943.65
2022-09-11T09:30:04.443Z,943.72
2022-09-11T09:35:02.989Z,943.72
2022-09-11T09:40:04.227Z,943.88
2022-09-11T09:45:03.014Z,943.90
2022-09-11T09:50:04.109Z,943.76
2022-09-11T09:55:02.945Z,943.74
2022-09-11T10:00:05.429Z,943.84
2022-09-11T10:05:03.027Z,943.90
2022-09-11T10:10:04.209Z,943.86
2022-09-11T10:15:02.930Z,943.90
2022-09-11T10:20:04.301Z,943.82
2022-09-11T10:25:02.971Z,943.90
2022-09-11T10:30:06.220Z,943.94
2022-09-11T10:35:02.941Z,944.04
2022-09-11T10:40:04.262Z,944.02
2022-09-11T10:45:03.031Z,944.17
2022-09-11T10:50:04.050Z,944.23
2022-09-11T10:55:03.067Z,944.23
2022-09-11T11:00:04.221Z,944.19
2022-09-11T11:05:03.050Z,944.19
2022-09-11T11:10:04.069Z,944.33
2022-09-11T11:15:02.970Z,944.39
2022-09-11T11:20:04.132Z,944.33
2022-09-11T11:25:02.934Z,944.49
2022-09-11T11:30:12.239Z,944.39
2022-09-11T11:35:03.005Z,944.43
2022-09-11T11:40:04.323Z,944.53
2022-09-11T11:45:03.003Z,944.55
2022-09-11T11:50:04.049Z,944.51
2022-09-11T11:55:02.926Z,944.55
2022-09-11T12:00:06.022Z,944.51
2022-09-11T12:05:02.988Z,944.45
2022-09-11T12:10:04.115Z,944.33
2022-09-11T12:15:02.948Z,944.43
2022-09-11T12:20:04.255Z,944.45
2022-09-11T12:25:03.062Z,944.43
2022-09-11T12:30:06.823Z,944.41
2022-09-11T12:35:02.942Z,944.47
2022-09-11T12:40:04.187Z,944.49
2022-09-11T12:45:02.974Z,944.57
2022-09-11T12:50:04.241Z,944.53
2022-09-11T12:55:02.981Z,944.59
2022-09-11T13:00:06.210Z,944.59
2022-09-11T13:05:02.975Z,944.63
2022-09-11T13:10:04.152Z,944.65
2022-09-11T13:15:03.010Z,944.70
2022-09-11T13:20:04.137Z,944.57
2022-09-11T13:25:03.032Z,944.45
2022-09-11T13:30:05.488Z,944.49
2022-09-11T13:35:02.942Z,944.57
2022-09-11T13:40:04.348Z,944.45
2022-09-11T13:45:03.001Z,944.41
2022-09-11T13:50:04.194Z,944.43
2022-09-11T13:55:03.065Z,944.29
2022-09-11T14:00:05.466Z,944.31
2022-09-11T14:05:02.893Z,944.19
2022-09-11T14:10:04.160Z,944.17
2022-09-11T14:15:02.985Z,944.08
2022-09-11T14:20:04.179Z,944.00
2022-09-11T14:25:02.999Z,943.88
2022-09-11T14:30:05.897Z,943.66
2022-09-11T14:35:03.072Z,943.61
2022-09-11T14:40:04.251Z,943.47
2022-09-11T14:45:02.971Z,943.41
2022-09-11T14:50:04.120Z,943.31
2022-09-11T14:55:02.978Z,943.18
2022-09-11T15:00:04.942Z,943.06
2022-09-11T15:05:02.970Z,943.08
2022-09-11T15:10:04.228Z,943.06
2022-09-11T15:15:04.395Z,943.02
2022-09-11T15:20:04.188Z,942.96
2022-09-11T15:25:03.166Z,942.90
2022-09-11T15:30:04.477Z,942.70
2022-09-11T15:35:03.018Z,942.59
2022-09-11T15:40:04.325Z,942.55
2022-09-11T15:45:02.927Z,942.43
2022-09-11T15:50:04.218Z,942.39
2022-09-11T15:55:03.025Z,942.29
2022-09-11T16:00:04.369Z,942.21
2022-09-11T16:05:02.957Z,942.06
2022-09-11T16:10:05.340Z,942.02
2022-09-11T16:15:03.028Z,942.04
2022-09-11T16:20:04.217Z,942.06
2022-09-11T16:25:03.029Z,941.96
2022-09-11T16:30:51.153Z,941.82
2022-09-11T16:35:03.212Z,941.78
2022-09-11T16:40:04.265Z,941.72
2022-09-11T16:45:02.978Z,941.64
2022-09-11T16:50:08.303Z,941.70
2022-09-11T16:55:03.068Z,941.66
2022-09-11T17:00:05.705Z,941.64
2022-09-11T17:05:03.041Z,941.59
2022-09-11T17:10:04.330Z,941.55
2022-09-11T17:15:02.982Z,941.49
2022-09-11T17:20:04.321Z,941.31
2022-09-11T17:25:02.978Z,941.27
2022-09-11T17:30:06.626Z,941.19
2022-09-11T17:35:03.044Z,941.17
2022-09-11T17:40:09.173Z,941.15
2022-09-11T17:45:03.086Z,941.13
2022-09-11T17:50:04.249Z,941.04
2022-09-11T17:55:02.997Z,940.94
2022-09-11T18:00:04.519Z,940.76
2022-09-11T18:05:02.943Z,940.68
2022-09-11T18:10:04.224Z,940.70
2022-09-11T18:15:03.073Z,940.68
2022-09-11T18:20:04.399Z,940.64
2022-09-11T18:25:03.072Z,940.59
2022-09-11T18:30:04.471Z,940.53
2022-09-11T18:35:04.085Z,940.45
2022-09-11T18:40:04.453Z,940.31
2022-09-11T18:45:03.030Z,940.29
2022-09-11T18:50:04.273Z,940.23
2022-09-11T18:55:03.105Z,940.23
2022-09-11T19:00:06.072Z,940.25
2022-09-11T19:05:03.009Z,940.27
2022-09-11T19:10:04.221Z,940.25
2022-09-11T19:15:03.142Z,940.27
2022-09-11T19:20:09.238Z,940.27
2022-09-11T19:25:02.949Z,940.17
2022-09-11T19:30:06.321Z,940.02
2022-09-11T19:35:02.979Z,939.98
2022-09-11T19:40:05.286Z,940.09
2022-09-11T19:45:03.204Z,940.17
2022-09-11T19:50:04.366Z,940.23
2022-09-11T19:55:03.034Z,940.19
2022-09-11T20:00:05.579Z,940.17
2022-09-11T20:05:02.953Z,940.11
2022-09-11T20:10:04.292Z,940.13
2022-09-11T20:15:02.989Z,940.11
2022-09-11T20:20:04.209Z,940.15
2022-09-11T20:25:02.967Z,940.08
2022-09-11T20:30:04.321Z,940.09
2022-09-11T20:35:03.039Z,940.17
2022-09-11T20:40:04.273Z,940.23
2022-09-11T20:45:04.114Z,940.21
2022-09-11T20:50:04.229Z,940.17
2022-09-11T20:55:03.019Z,940.15
2022-09-11T21:00:06.052Z,940.25
2022-09-11T21:05:03.041Z,940.23
2022-09-11T21:10:04.178Z,940.25
2022-09-11T21:15:03.052Z,940.31
2022-09-11T21:20:04.251Z,940.35
2022-09-11T21:25:03.018Z,940.43
2022-09-11T21:30:06.193Z,940.49
2022-09-11T21:35:03.003Z,940.55
2022-09-11T21:40:04.394Z,940.53
2022-09-11T21:45:03.055Z,940.59
2022-09-11T21:50:04.253Z,940.61
2022-09-11T21:55:03.240Z,940.57
2022-09-11T22:00:06.306Z,940.61
2022-09-11T22:05:03.041Z,940.72
2022-09-11T22:10:04.321Z,940.78
2022-09-11T22:15:03.023Z,940.74
2022-09-11T22:20:04.200Z,940.78
2022-09-11T22:25:03.063Z,940.78
2022-09-11T22:30:05.634Z,940.90
2022-09-11T22:35:03.004Z,940.94
2022-09-11T22:40:04.366Z,940.90
2022-09-11T22:45:03.280Z,940.88
2022-09-11T22:50:04.329Z,940.86
2022-09-11T22:55:02.974Z,940.92
2022-09-11T23:00:04.453Z,941.08
2022-09-11T23:05:03.032Z,941.06
2022-09-11T23:10:04.367Z,941.13
2022-09-11T23:15:03.035Z,941.13
2022-09-11T23:20:04.558Z,941.21
2022-09-11T23:25:02.976Z,941.19
2022-09-11T23:30:04.615Z,941.21
2022-09-11T23:35:03.011Z,941.23
2022-09-11T23:40:04.482Z,941.25
2022-09-11T23:45:03.725Z,941.23
2022-09-11T23:50:04.279Z,941.31
2022-09-11T23:55:03.030Z,941.39
